Guarani International Airport
SGES : rendu visible

Aérodrome :











RETROUVEZ-NOUS SUR...

 
LOGIN :

S'inscrire | Disclaimer

   EN    FR    IT 

 









Légende :    VFR   VFR Marginal   IFR   IFR Intensif   IFR Très Intensif
Visi : 
Plafond : 
>= 8 km
>= 3000ft
5 à 8 km
1000 à 3000 ft
1500m à 5 km
500 à 1000 ft
800 à 1500m
200 à 500 ft
< 800m
< 200 ft
Symboles :   Orages  Brouillard  Fortes neiges  Fortes précipitations  Vent > 20 kt






- Altitude de l'aérodrome : 846 ft
- Code IATA : AGT


SGES - Guarani International

DERNIER METAR :
  • 242300Z 06010KT 9999 BKN027 FEW040TCU 28/23 Q1007

METARs EXPIRÉS :
  • 242200Z 03004KT 9999 BKN027 FEW040TCU 29/23 Q1007

TAF TAF SGES
Valide du 25 à 00h jusqu'au 26 à 00h UTC


242232Z 2500/2600 02007KT 9999 FEW027 FEW040TCU TX29/2518Z TN23/2509Z
BECMG 2501/2504 14008KT 9999 SCT030
BECMG 2505/2508 VRB03KT CAVOK
BECMG 2509/2512 02008KT BKN027
BECMG 2513/2516 05007KT 9999 TS BKN030 FEW040CB
PROB30 2517/2520 15010KT 9000 -TSRA BKN027 FEW040CB



MET'MAP, la Météo Aéronautique d'un coup d'oeil ! - Copyright ORBIFLY Décembre 2007 - Disclaimer

ORBIFLY MET'MAP TEAM :

Programmation & Développement : Alexandra Zaïnal
Sur une idée originale de : Baudouin d'Aumeries
Assistance à la programmation : Marc-Olivier Méhu
Soutien technique & logistique : Manuel Goepfert

Contact : metmap@orbifly.com




SOURCES & CREDITS :

   NOAA       Earth
Advisory